createdAt,value
2019-03-15T00:01:42.326Z,21.07
2019-03-15T00:04:11.120Z,16.87
2019-03-15T00:06:39.905Z,14.90
2019-03-15T00:09:08.985Z,19.50
2019-03-15T00:11:37.504Z,19.48
2019-03-15T00:14:06.493Z,14.83
2019-03-15T00:16:35.099Z,16.67
2019-03-15T00:19:03.772Z,19.20
2019-03-15T00:21:32.295Z,21.42
2019-03-15T00:24:00.886Z,17.55
2019-03-15T00:26:29.418Z,9.43
2019-03-15T00:28:57.858Z,23.42
2019-03-15T00:31:26.303Z,13.08
2019-03-15T00:33:54.745Z,20.80
2019-03-15T00:36:23.470Z,15.18
2019-03-15T00:38:51.976Z,15.90
2019-03-15T00:41:20.488Z,16.57
2019-03-15T00:43:49.605Z,25.20
2019-03-15T00:46:18.391Z,19.57
2019-03-15T00:48:46.877Z,20.30
2019-03-15T00:51:15.323Z,18.80
2019-03-15T00:53:43.771Z,19.52
2019-03-15T00:56:12.315Z,22.37
2019-03-15T00:58:40.759Z,22.67
2019-03-15T01:01:09.610Z,13.70
2019-03-15T01:03:38.106Z,15.10
2019-03-15T01:06:06.615Z,16.27
2019-03-15T01:08:35.127Z,19.37
2019-03-15T01:11:04.032Z,16.40
2019-03-15T01:13:32.476Z,19.85
2019-03-15T01:16:00.944Z,20.65
2019-03-15T01:18:29.390Z,16.87
2019-03-15T01:20:57.926Z,18.23
2019-03-15T01:23:26.366Z,18.67
2019-03-15T01:25:54.929Z,22.73
2019-03-15T01:28:23.473Z,19.57
2019-03-15T01:30:52.004Z,24.72
2019-03-15T01:33:20.457Z,19.25
2019-03-15T01:35:48.930Z,19.07
2019-03-15T01:38:17.443Z,20.37
2019-03-15T01:40:48.682Z,21.70
2019-03-15T01:43:16.160Z,24.80
2019-03-15T01:45:44.703Z,18.20
2019-03-15T01:48:13.150Z,15.83
2019-03-15T01:50:41.616Z,15.87
2019-03-15T01:53:10.179Z,17.17
2019-03-15T01:55:38.617Z,15.72
2019-03-15T01:58:07.221Z,16.10
2019-03-15T02:00:35.805Z,18.77
2019-03-15T02:03:04.381Z,19.48
2019-03-15T02:05:32.846Z,22.30
2019-03-15T02:08:01.464Z,14.55
2019-03-15T02:10:29.922Z,19.23
2019-03-15T02:12:58.369Z,21.40
2019-03-15T02:15:26.923Z,18.23
2019-03-15T02:17:55.459Z,22.42
2019-03-15T02:20:23.904Z,18.52
2019-03-15T02:22:52.349Z,20.50
2019-03-15T02:25:20.797Z,22.87
2019-03-15T02:27:49.443Z,17.37
2019-03-15T02:30:17.917Z,20.10
2019-03-15T02:32:46.363Z,17.93
2019-03-15T02:35:15.056Z,19.15
2019-03-15T02:37:43.757Z,15.48
2019-03-15T02:40:12.837Z,15.85
2019-03-15T02:42:41.563Z,21.63
2019-03-15T02:45:10.305Z,23.00
2019-03-15T02:47:38.741Z,21.25
2019-03-15T02:50:08.354Z,22.77
2019-03-15T02:52:36.945Z,16.90
2019-03-15T02:55:06.646Z,18.30
2019-03-15T02:57:35.714Z,16.77
2019-03-15T03:00:06.515Z,19.97
2019-03-15T03:02:34.935Z,25.85
2019-03-15T03:05:04.557Z,14.90
2019-03-15T03:07:33.006Z,13.22
2019-03-15T03:10:02.271Z,13.00
2019-03-15T03:12:31.075Z,19.60
2019-03-15T03:14:59.550Z,21.00
2019-03-15T03:17:27.984Z,21.35
2019-03-15T03:19:56.459Z,19.65
2019-03-15T03:22:24.901Z,17.17
2019-03-15T03:24:53.418Z,17.95
2019-03-15T03:27:21.859Z,15.93
2019-03-15T03:29:50.344Z,19.48
2019-03-15T03:32:18.835Z,21.97
2019-03-15T03:34:47.296Z,24.23
2019-03-15T03:37:15.803Z,14.65
2019-03-15T03:39:44.271Z,20.70
2019-03-15T03:42:12.869Z,22.75
2019-03-15T03:44:41.310Z,16.90
2019-03-15T03:47:09.755Z,15.48
2019-03-15T03:49:38.232Z,14.50
2019-03-15T03:52:06.809Z,13.10
2019-03-15T03:54:35.429Z,16.23
2019-03-15T03:57:04.818Z,18.12
2019-03-15T03:59:33.531Z,16.30
2019-03-15T04:02:02.122Z,17.23
2019-03-15T04:04:30.567Z,23.60
2019-03-15T04:06:59.009Z,15.28
2019-03-15T04:09:27.547Z,15.18
2019-03-15T04:11:56.446Z,18.73
2019-03-15T04:14:24.971Z,24.82
2019-03-15T04:16:53.521Z,15.90
2019-03-15T04:19:21.971Z,20.37
2019-03-15T04:21:50.489Z,16.07
2019-03-15T04:24:19.562Z,17.60
2019-03-15T04:26:48.022Z,15.45
2019-03-15T04:29:16.567Z,18.82
2019-03-15T04:31:45.021Z,15.72
2019-03-15T04:34:13.499Z,19.37
2019-03-15T04:36:42.277Z,15.77
2019-03-15T04:39:13.801Z,21.40
2019-03-15T04:41:40.997Z,12.20
2019-03-15T04:44:09.444Z,15.28
2019-03-15T04:46:37.993Z,19.97
2019-03-15T04:49:06.477Z,20.52
2019-03-15T04:51:35.007Z,24.18
2019-03-15T04:54:05.684Z,13.93
2019-03-15T04:56:33.789Z,21.12
2019-03-15T04:59:02.322Z,23.80
2019-03-15T05:01:30.852Z,21.77
2019-03-15T05:03:59.371Z,25.23
2019-03-15T05:06:27.886Z,21.50
2019-03-15T05:08:56.333Z,17.70
2019-03-15T05:11:24.806Z,25.27
2019-03-15T05:13:53.264Z,22.20
2019-03-15T05:16:21.698Z,22.90
2019-03-15T05:18:50.239Z,17.87
2019-03-15T05:21:18.680Z,19.82
2019-03-15T05:23:47.158Z,18.05
2019-03-15T05:26:15.615Z,21.10
2019-03-15T05:28:44.130Z,17.73
2019-03-15T05:31:12.574Z,30.95
2019-03-15T05:33:41.100Z,18.85
2019-03-15T05:36:09.553Z,18.57
2019-03-15T05:38:38.000Z,27.03
2019-03-15T05:41:06.437Z,24.05
2019-03-15T05:43:34.887Z,23.30
2019-03-15T05:46:03.521Z,28.30
2019-03-15T05:48:31.983Z,25.57
2019-03-15T05:51:00.430Z,20.03
2019-03-15T05:53:28.870Z,24.57
2019-03-15T05:55:57.314Z,27.70
2019-03-15T05:58:25.843Z,21.45
2019-03-15T06:00:54.364Z,21.05
2019-03-15T06:03:22.810Z,24.05
2019-03-15T06:05:51.263Z,22.98
2019-03-15T06:08:19.712Z,25.27
2019-03-15T06:10:48.154Z,22.77
2019-03-15T06:13:16.698Z,24.73
2019-03-15T06:15:45.145Z,20.50
2019-03-15T06:18:13.603Z,23.70
2019-03-15T06:20:42.081Z,20.77
2019-03-15T06:23:10.525Z,22.20
2019-03-15T06:25:39.120Z,17.80
2019-03-15T06:28:07.583Z,18.85
2019-03-15T06:30:36.011Z,20.10
2019-03-15T06:33:04.542Z,19.30
2019-03-15T06:35:32.973Z,24.18
2019-03-15T06:38:01.488Z,20.30
2019-03-15T06:40:30.201Z,25.40
2019-03-15T06:42:58.661Z,21.17
2019-03-15T06:45:27.259Z,20.85
2019-03-15T06:47:55.891Z,17.50
2019-03-15T06:50:24.410Z,23.07
2019-03-15T06:52:52.997Z,26.25
2019-03-15T06:55:21.436Z,22.55
2019-03-15T06:57:49.880Z,28.87
2019-03-15T07:00:18.324Z,24.52
2019-03-15T07:02:46.965Z,25.73
2019-03-15T07:05:15.551Z,22.57
2019-03-15T07:07:44.131Z,25.45
2019-03-15T07:10:13.010Z,21.25
2019-03-15T07:12:41.547Z,27.15
2019-03-15T07:15:11.666Z,22.00
2019-03-15T07:17:40.159Z,23.38
2019-03-15T07:20:18.973Z,25.40
2019-03-15T07:22:47.478Z,22.07
2019-03-15T07:25:16.063Z,27.35
2019-03-15T07:27:44.813Z,19.65
2019-03-15T07:30:15.259Z,24.12
2019-03-15T07:32:43.883Z,23.33
2019-03-15T07:35:12.386Z,21.77
2019-03-15T07:37:40.930Z,17.62
2019-03-15T07:40:11.695Z,16.45
2019-03-15T07:42:40.165Z,23.13
2019-03-15T07:45:10.451Z,19.87
2019-03-15T07:47:38.908Z,25.15
2019-03-15T07:50:14.410Z,24.75
2019-03-15T07:52:43.246Z,17.60
2019-03-15T07:55:12.132Z,17.67
2019-03-15T07:57:40.581Z,16.10
2019-03-15T08:00:16.654Z,20.57
2019-03-15T08:02:45.246Z,20.90
2019-03-15T08:05:13.959Z,20.15
2019-03-15T08:07:45.552Z,16.35
2019-03-15T08:10:13.326Z,15.58
2019-03-15T08:12:42.034Z,14.85
2019-03-15T08:15:11.934Z,16.20
2019-03-15T08:17:40.660Z,17.92
2019-03-15T08:20:14.131Z,19.15
2019-03-15T08:22:42.645Z,13.93
2019-03-15T08:25:12.130Z,13.43
2019-03-15T08:27:40.572Z,11.55
2019-03-15T08:30:12.093Z,12.85
2019-03-15T08:32:43.325Z,13.08
2019-03-15T08:35:11.878Z,12.43
2019-03-15T08:37:40.565Z,12.53
2019-03-15T08:40:15.951Z,12.73
2019-03-15T08:42:44.532Z,10.93
2019-03-15T08:45:17.983Z,10.72
2019-03-15T08:47:46.562Z,10.23
2019-03-15T08:50:17.124Z,11.48
2019-03-15T08:52:45.661Z,9.73
2019-03-15T08:55:14.547Z,9.55
2019-03-15T08:57:42.993Z,7.87
2019-03-15T09:00:18.495Z,9.43
2019-03-15T09:02:47.003Z,8.63
2019-03-15T09:05:18.933Z,13.47
2019-03-15T09:07:47.417Z,8.80
2019-03-15T09:10:23.337Z,11.55
2019-03-15T09:12:48.326Z,10.43
2019-03-15T09:15:16.938Z,8.53
2019-03-15T09:17:45.524Z,11.03
2019-03-15T09:20:15.371Z,9.53
2019-03-15T09:22:43.842Z,11.33
2019-03-15T09:25:19.808Z,11.33
2019-03-15T09:27:45.589Z,10.80
2019-03-15T09:30:23.017Z,10.25
2019-03-15T09:32:45.581Z,10.70
2019-03-15T09:35:14.198Z,11.08
2019-03-15T09:37:42.727Z,13.83
2019-03-15T09:40:15.870Z,11.18
2019-03-15T09:42:44.342Z,12.40
2019-03-15T09:45:17.982Z,9.40
2019-03-15T09:47:46.746Z,14.20
2019-03-15T09:50:26.457Z,12.83
2019-03-15T09:52:46.281Z,12.33
2019-03-15T09:55:15.029Z,11.88
2019-03-15T09:57:43.515Z,14.93
2019-03-15T10:00:16.774Z,12.75
2019-03-15T10:02:45.280Z,13.90
2019-03-15T10:05:14.016Z,16.37
2019-03-15T10:07:43.809Z,15.70
2019-03-15T10:10:18.274Z,16.30
2019-03-15T10:12:46.079Z,16.80
2019-03-15T10:15:15.358Z,16.45
2019-03-15T10:17:43.808Z,16.40
2019-03-15T10:20:13.189Z,16.20
2019-03-15T10:22:41.740Z,16.93
2019-03-15T10:25:17.694Z,19.67
2019-03-15T10:27:46.232Z,16.32
2019-03-15T10:30:19.514Z,15.97
2019-03-15T10:32:48.004Z,14.85
2019-03-15T10:35:16.614Z,13.78
2019-03-15T10:37:45.105Z,13.48
2019-03-15T10:40:24.243Z,13.18
2019-03-15T10:42:55.553Z,13.40
2019-03-15T10:45:23.224Z,10.08
2019-03-15T10:47:51.681Z,10.03
2019-03-15T10:50:20.435Z,8.35
2019-03-15T10:52:48.876Z,7.47
2019-03-15T10:55:20.575Z,8.53
2019-03-15T10:57:47.576Z,10.90
2019-03-15T11:00:22.377Z,9.28
2019-03-15T11:02:50.924Z,8.70
2019-03-15T11:05:19.424Z,9.33
2019-03-15T11:07:47.963Z,9.65
2019-03-15T11:10:16.498Z,9.90
2019-03-15T11:12:45.014Z,11.38
2019-03-15T11:15:16.983Z,12.75
2019-03-15T11:17:45.417Z,11.45
2019-03-15T11:20:14.349Z,12.63
2019-03-15T11:22:42.863Z,15.50
2019-03-15T11:25:12.076Z,11.22
2019-03-15T11:27:40.629Z,14.87
2019-03-15T11:30:11.606Z,14.90
2019-03-15T11:32:40.181Z,16.77
2019-03-15T11:35:09.790Z,19.40
2019-03-15T11:37:38.315Z,17.85
2019-03-15T11:40:18.890Z,14.20
2019-03-15T11:42:46.404Z,21.42
2019-03-15T11:45:15.220Z,21.37
2019-03-15T11:48:01.820Z,21.25
2019-03-15T11:50:18.024Z,20.23
2019-03-15T11:52:46.592Z,23.10
2019-03-15T11:55:15.142Z,17.30
2019-03-15T11:57:43.641Z,16.82
2019-03-15T12:00:16.323Z,14.98
2019-03-15T12:02:44.896Z,20.13
2019-03-15T12:05:14.175Z,14.47
2019-03-15T12:07:42.688Z,17.23
2019-03-15T12:10:12.787Z,14.70
2019-03-15T12:12:41.225Z,12.07
2019-03-15T12:15:11.898Z,16.10
2019-03-15T12:17:40.364Z,14.43
2019-03-15T12:20:12.436Z,17.35
2019-03-15T12:22:40.894Z,15.00
2019-03-15T12:25:10.387Z,16.95
2019-03-15T12:27:38.836Z,12.50
2019-03-15T12:30:15.252Z,21.15
2019-03-15T12:32:43.789Z,16.13
2019-03-15T12:35:13.210Z,16.77
2019-03-15T12:37:41.685Z,17.92
2019-03-15T12:40:17.792Z,21.85
2019-03-15T12:42:46.301Z,17.50
2019-03-15T12:45:15.486Z,18.07
2019-03-15T12:47:44.145Z,19.75
2019-03-15T12:50:16.236Z,14.05
2019-03-15T12:52:48.698Z,10.72
2019-03-15T12:55:15.456Z,13.28
2019-03-15T12:57:44.131Z,16.17
2019-03-15T13:00:14.841Z,12.70
2019-03-15T13:02:43.371Z,13.17
2019-03-15T13:05:11.929Z,11.43
2019-03-15T13:07:40.445Z,10.30
2019-03-15T13:10:11.713Z,18.15
2019-03-15T13:12:40.151Z,14.93
2019-03-15T13:15:11.300Z,14.10
2019-03-15T13:17:39.820Z,12.80
2019-03-15T13:20:10.868Z,8.40
2019-03-15T13:22:39.344Z,13.85
2019-03-15T13:25:09.856Z,12.43
2019-03-15T13:27:38.306Z,20.15
2019-03-15T13:30:09.681Z,17.00
2019-03-15T13:32:38.375Z,15.30
2019-03-15T13:35:07.940Z,13.53
2019-03-15T13:37:36.397Z,16.50
2019-03-15T13:40:07.900Z,17.62
2019-03-15T13:42:36.407Z,17.23
2019-03-15T13:45:07.444Z,18.52
2019-03-15T13:47:35.915Z,14.30
2019-03-15T13:50:06.635Z,16.15
2019-03-15T13:52:35.082Z,15.72
2019-03-15T13:55:03.895Z,15.20
2019-03-15T13:57:32.370Z,13.88
2019-03-15T14:00:00.796Z,14.33
2019-03-15T14:02:29.251Z,12.15
2019-03-15T14:04:57.692Z,13.35
2019-03-15T14:07:26.152Z,16.48
2019-03-15T14:09:54.587Z,14.30
2019-03-15T14:12:23.152Z,19.02
2019-03-15T14:14:51.678Z,15.55
2019-03-15T14:17:20.121Z,17.30
2019-03-15T14:19:48.559Z,17.40
2019-03-15T14:22:17.084Z,15.00
2019-03-15T14:24:45.578Z,17.27
2019-03-15T14:27:14.129Z,15.98
2019-03-15T14:29:42.569Z,19.55
2019-03-15T14:32:11.031Z,22.42
2019-03-15T14:34:39.540Z,16.13
2019-03-15T14:37:10.311Z,15.75
2019-03-15T14:39:38.246Z,15.72
2019-03-15T14:42:06.892Z,14.20
2019-03-15T14:44:35.379Z,15.15
2019-03-15T14:47:03.953Z,16.37
2019-03-15T14:49:32.398Z,15.65
2019-03-15T14:52:00.829Z,16.20
2019-03-15T14:54:29.263Z,16.10
2019-03-15T14:56:57.858Z,16.37
2019-03-15T14:59:26.334Z,14.65
2019-03-15T15:01:54.998Z,14.47
2019-03-15T15:04:23.617Z,15.90
2019-03-15T15:06:52.048Z,14.83
2019-03-15T15:09:20.556Z,17.62
2019-03-15T15:11:49.017Z,12.78
2019-03-15T15:14:17.557Z,12.50
2019-03-15T15:16:45.993Z,12.80
2019-03-15T15:19:14.435Z,12.65
2019-03-15T15:21:42.905Z,12.30
2019-03-15T15:24:11.385Z,14.87
2019-03-15T15:26:39.826Z,19.27
2019-03-15T15:29:08.265Z,13.93
2019-03-15T15:31:36.822Z,16.95
2019-03-15T15:34:05.388Z,15.95
2019-03-15T15:36:33.830Z,19.12
2019-03-15T15:39:02.316Z,18.77
2019-03-15T15:41:30.755Z,17.27
2019-03-15T15:43:59.267Z,15.95
2019-03-15T15:46:27.765Z,21.05
2019-03-15T15:48:56.268Z,13.65
2019-03-15T15:51:24.717Z,20.00
2019-03-15T15:53:53.184Z,15.20
2019-03-15T15:56:21.612Z,17.40
2019-03-15T15:58:50.204Z,16.93
2019-03-15T16:01:18.639Z,18.07
2019-03-15T16:03:47.149Z,16.85
2019-03-15T16:06:16.478Z,17.27
2019-03-15T16:08:44.919Z,20.30
2019-03-15T16:11:13.429Z,13.85
2019-03-15T16:13:41.875Z,16.93
2019-03-15T16:16:10.339Z,12.93
2019-03-15T16:18:38.848Z,10.35
2019-03-15T16:21:07.391Z,6.75
2019-03-15T16:23:36.044Z,9.40
2019-03-15T16:26:04.561Z,6.28
2019-03-15T16:28:36.014Z,9.80
2019-03-15T16:31:03.221Z,5.80
2019-03-15T16:33:31.657Z,6.27
2019-03-15T16:36:00.094Z,5.67
2019-03-15T16:38:28.514Z,5.53
2019-03-15T16:40:56.942Z,7.87
2019-03-15T16:43:25.379Z,10.95
2019-03-15T16:45:53.840Z,9.95
2019-03-15T16:48:22.267Z,8.60
2019-03-15T16:50:51.987Z,9.70
2019-03-15T16:53:20.533Z,7.55
2019-03-15T16:55:49.076Z,8.28
2019-03-15T16:58:17.575Z,8.08
2019-03-15T17:00:46.076Z,8.53
2019-03-15T17:03:14.512Z,11.78
2019-03-15T17:05:42.956Z,11.53
2019-03-15T17:08:11.393Z,11.50
2019-03-15T17:10:39.820Z,9.20
2019-03-15T17:13:08.424Z,13.28
2019-03-15T17:15:37.030Z,10.73
2019-03-15T17:18:05.461Z,17.12
2019-03-15T17:20:33.894Z,14.65
2019-03-15T17:23:02.414Z,9.78
2019-03-15T17:25:30.845Z,16.32
2019-03-15T17:27:59.318Z,15.83
2019-03-15T17:30:28.149Z,17.73
2019-03-15T17:32:56.576Z,14.60
2019-03-15T17:35:25.010Z,16.30
2019-03-15T17:37:53.551Z,14.85
2019-03-15T17:40:22.332Z,13.85
2019-03-15T17:42:50.832Z,14.33
2019-03-15T17:45:19.339Z,11.28
2019-03-15T17:47:48.103Z,16.90
2019-03-15T17:50:17.774Z,14.63
2019-03-15T17:52:46.328Z,17.75
2019-03-15T17:55:16.475Z,17.55
2019-03-15T17:57:45.824Z,17.23
2019-03-15T18:00:24.895Z,14.53
2019-03-15T18:02:53.341Z,15.23
2019-03-15T18:05:22.137Z,20.20
2019-03-15T18:07:50.700Z,18.85
2019-03-15T18:10:19.137Z,13.97
2019-03-15T18:12:47.641Z,19.42
2019-03-15T18:15:16.185Z,13.53
2019-03-15T18:17:44.701Z,16.93
2019-03-15T18:20:13.305Z,16.65
2019-03-15T18:22:41.763Z,15.00
2019-03-15T18:25:11.033Z,14.65
2019-03-15T18:27:39.661Z,17.23
2019-03-15T18:30:15.899Z,13.35
2019-03-15T18:32:44.493Z,20.08
2019-03-15T18:35:13.663Z,18.02
2019-03-15T18:37:42.290Z,22.73
2019-03-15T18:40:12.811Z,24.95
2019-03-15T18:42:41.261Z,21.23
2019-03-15T18:45:12.041Z,22.35
2019-03-15T18:47:40.611Z,21.50
2019-03-15T18:50:15.290Z,19.40
2019-03-15T18:52:43.783Z,17.17
2019-03-15T18:55:12.411Z,21.05
2019-03-15T18:57:40.941Z,17.23
2019-03-15T19:00:14.753Z,23.85
2019-03-15T19:02:43.327Z,20.43
2019-03-15T19:05:12.024Z,20.60
2019-03-15T19:07:40.559Z,14.75
2019-03-15T19:10:15.938Z,18.60
2019-03-15T19:12:44.648Z,21.90
2019-03-15T19:15:17.988Z,20.72
2019-03-15T19:17:46.484Z,16.15
2019-03-15T19:20:16.034Z,15.20
2019-03-15T19:22:44.541Z,20.70
2019-03-15T19:25:14.145Z,16.30
2019-03-15T19:27:42.751Z,17.35
2019-03-15T19:30:15.984Z,16.93
2019-03-15T19:32:44.460Z,19.57
2019-03-15T19:35:12.987Z,13.32
2019-03-15T19:37:41.586Z,23.55
2019-03-15T19:40:17.857Z,21.60
2019-03-15T19:42:46.366Z,15.60
2019-03-15T19:45:15.737Z,16.93
2019-03-15T19:47:44.338Z,19.20
2019-03-15T19:50:17.519Z,20.63
2019-03-15T19:52:46.029Z,19.40
2019-03-15T19:55:15.235Z,21.70
2019-03-15T19:57:43.808Z,14.58
2019-03-15T20:00:14.789Z,15.65
2019-03-15T20:02:43.588Z,26.77
2019-03-15T20:05:12.449Z,18.27
2019-03-15T20:07:41.093Z,17.95
2019-03-15T20:10:15.658Z,17.50
2019-03-15T20:12:42.639Z,20.87
2019-03-15T20:15:16.337Z,15.70
2019-03-15T20:20:14.741Z,19.52
2019-03-15T20:22:43.590Z,19.07
2019-03-15T20:25:14.408Z,19.73
2019-03-15T20:27:42.976Z,18.02
2019-03-15T20:30:21.564Z,18.45
2019-03-15T20:32:47.199Z,17.27
2019-03-15T20:35:16.011Z,20.92
2019-03-15T20:37:44.669Z,16.65
2019-03-15T20:40:16.530Z,21.65
2019-03-15T20:42:45.308Z,14.40
2019-03-15T20:45:28.253Z,16.25
2019-03-15T20:47:56.854Z,18.02
2019-03-15T20:50:25.590Z,21.80
2019-03-15T20:53:07.219Z,19.92
2019-03-15T20:55:28.461Z,18.90
2019-03-15T20:57:55.387Z,20.37
2019-03-15T21:00:34.704Z,16.20
2019-03-15T21:02:55.203Z,13.13
2019-03-15T21:05:24.434Z,21.60
2019-03-15T21:07:53.154Z,20.97
2019-03-15T21:10:21.858Z,21.10
2019-03-15T21:12:50.414Z,19.70
2019-03-15T21:15:18.851Z,19.73
2019-03-15T21:17:47.370Z,14.33
2019-03-15T21:20:17.113Z,16.40
2019-03-15T21:22:45.642Z,16.67
2019-03-15T21:25:14.333Z,22.75
2019-03-15T21:27:53.097Z,20.12
2019-03-15T21:30:15.466Z,17.90
2019-03-15T21:32:44.181Z,14.20
2019-03-15T21:35:12.760Z,19.00
2019-03-15T21:37:41.357Z,21.27
2019-03-15T21:40:20.462Z,18.15
2019-03-15T21:42:48.964Z,21.33
2019-03-15T21:45:17.666Z,14.45
2019-03-15T21:47:46.191Z,16.65
2019-03-15T21:50:24.723Z,14.53
2019-03-15T21:52:53.155Z,12.33
2019-03-15T21:55:21.660Z,19.35
2019-03-15T21:57:50.167Z,17.35
2019-03-15T22:00:19.760Z,13.85
2019-03-15T22:02:48.437Z,19.20
2019-03-15T22:05:16.826Z,19.27
2019-03-15T22:07:45.284Z,13.88
2019-03-15T22:10:15.801Z,11.70
2019-03-15T22:12:44.494Z,15.80
2019-03-15T22:15:13.671Z,17.00
2019-03-15T22:17:42.675Z,14.83
2019-03-15T22:20:14.383Z,12.25
2019-03-15T22:22:42.884Z,17.52
2019-03-15T22:25:11.456Z,15.98
2019-03-15T22:27:39.891Z,12.60
2019-03-15T22:30:15.256Z,13.40
2019-03-15T22:32:43.831Z,11.43
2019-03-15T22:35:12.526Z,17.37
2019-03-15T22:37:41.061Z,13.03
2019-03-15T22:40:11.079Z,13.57
2019-03-15T22:42:39.578Z,13.93
2019-03-15T22:45:12.355Z,17.42
2019-03-15T22:47:40.860Z,12.25
2019-03-15T22:50:10.730Z,14.68
2019-03-15T22:52:39.194Z,12.57
2019-03-15T22:55:09.063Z,17.35
2019-03-15T22:57:37.715Z,16.45
2019-03-15T23:00:12.144Z,16.45
2019-03-15T23:02:41.063Z,15.37
2019-03-15T23:05:09.630Z,13.62
2019-03-15T23:07:38.148Z,13.10
2019-03-15T23:10:08.947Z,13.20
2019-03-15T23:12:37.448Z,16.73
2019-03-15T23:15:08.381Z,18.17
2019-03-15T23:17:36.812Z,15.58
2019-03-15T23:20:07.576Z,22.75
2019-03-15T23:22:36.101Z,21.52
2019-03-15T23:25:06.074Z,16.37
2019-03-15T23:27:34.506Z,12.37
2019-03-15T23:30:03.104Z,21.68
2019-03-15T23:32:32.681Z,21.64
2019-03-15T23:35:01.128Z,21.73
2019-03-15T23:37:29.580Z,19.17
2019-03-15T23:39:58.007Z,12.85
2019-03-15T23:42:26.533Z,18.35
2019-03-15T23:44:55.003Z,22.30
2019-03-15T23:47:23.433Z,15.43
2019-03-15T23:49:51.876Z,15.03
2019-03-15T23:52:20.638Z,17.95
2019-03-15T23:54:49.096Z,18.63
2019-03-15T23:57:17.623Z,14.68
2019-03-15T23:59:46.029Z,15.97
